Accueil
METAR-TAF:

METAR-TAF

Aéroports :

Cranfield, Angleterre

latitude: 52-04N, longitude: 000-37W, altitude: 111 m

Observation

Le bulletin a été fait il y a 14 heures et 14 minutes, à 16:20 UTC
Vent 10 kt de nord-ouest, variant entre ouest et nord
Température 14°C
Humidité 51%
Pression 1022 hPa
Visibilité 10 km ou plus
pas de nuages en-dessous de 1500 mètres et pas de cumulonimbus.

METAR: EGTC 231620Z 31010KT 260V350 CAVOK 14/04 Q1022

Heure: 07:34 (06:34 UTC)

Prévision

Le bulletin a été fait il y a 16 heures et 28 minutes, à 14:06 UTC
Prévision valable du 23 à 15 UTC au 23 à 17 UTC
Vent 8 kt de nord/nord-ouest
Visibilité 10 km ou plus
Nuages épars à une hauteur de 4500 ft
Probabilité 40% :
Temporairement
du 23 à 15 UTC au 23 à 17 UTC
Vent 15 kt de nord/nord-ouest avec des rafales jusqu'à 25 kt
Visibilité: 9000 m
averses de pluie

TAF: EGTC 231406Z 2315/2317 34008KT 9999 SCT045 PROB40 TEMPO 2315/2317 34015G25KT 9000 SHRA

Observations et prévisions météorologiques de plus de 4000 aéroports (messages METAR et TAF).

Les stations disponibles sont représentées par des disques jaunes et rouges sur la carte.

Passer la souris dessus pour voir le nom de la station.

Cliquer dessus pour voir les observations et prévisions météorologiques.

Pour changer de carte: cliquez sur les boutons verts avec une croix noire pour zoomer, sur le bouton vert avec un tiret pour effectuer un zoom arrière, ou sur les flèches vertes pour les cartes adjacentes.


METAR-TAF: